Saint Charles, Missouri
Current Conditions -  °F | °C
As of 1:54 PM on Monday 24 Nov 2014 (Local Time) from KSET Reporting Station
Overcast Overcast  
Wind Chill: 28°   Ceiling: 3800
Heat Index: 39°   Visibility: 10mi
Dew Point: 27°   Wind: 25mph
Humidity: 62%   Direction: 260°W
Pressure: 29.74"   Gusts: 31mph
Location:  38.93°N, 90.43°W
Report Text: KSET 241954Z AUTO 26022G27KT 10SM OVC038 04/M03 A2974 RMK AO2 PK WND 27032/1856 SLP072 T00391028
Loading
Personal Weather Stations






























Interactive Weather Map New forecast layout! Learn more

10-Day Weather Forecast

Advertisements
Track Severe Weather on mobile